Country
Station

 

Weather  for  Wagga Airport  -  Australia    Australia

  
12 °C (54 °F)
    
 
 

Current METAR for Wagga Airport is :

YSWG 181400Z AUTO 00000KT 9999 // NCD 12/09 Q1017

 

This is a report for Wagga Airport - Australia.
 
The report was made 58 minutes ago, at 14:00 UTC .
The wind was calm.
 
The temperature was 12 °C (54 °F), with a dew-point at 9 °C (48 °F).
The atmospheric pressure was 1017 hPa (30.03 inHg).
The relative humidity was 81.9%.
 
The overall visibility was greater than 10 kilometers (6.2 miles).
 

 
 
 
 

Country :   A   B   C   D   E   F   G   H   I   J   K   L   M   N   O   P   Q   R   S   T   U   V   W   Y   Z

 

Site Info  |  Disclaimer  |  Credits  |  Privacy
Contact us  |  Add to favorites
© 2013-2018 METARs - All rights reserved